Time;durP1;ratioP1;P1;durP2;ratioP2;P2;SDS_P1;SDS_P2;PMS_P1;PMS_P2;Temp;Humidity;BMP_temperature;BMP_pressure;BME280_temperature;BME280_humidity;BME280_pressure;Samples;Min_cycle;Max_cycle;Signal;HPM_P1;HPM_P2
2022/08/19 00:01:59;;;;;;;10.27;6.20;;;23.50;99.90;;;;;;5028529;28;20744;-75
2022/08/19 00:04:35;;;;;;;8.90;6.22;;;23.50;99.90;;;;;;5027046;28;20223;-76
2022/08/19 00:07:05;;;;;;;8.27;4.95;;;23.50;99.90;;;;;;5028204;28;20253;-75
2022/08/19 00:09:32;;;;;;;7.20;5.63;;;23.40;99.90;;;;;;5011802;28;20643;-75
2022/08/19 00:12:02;;;;;;;7.20;5.85;;;23.40;99.90;;;;;;5029167;28;20188;-75
2022/08/19 00:14:31;;;;;;;6.70;5.75;;;23.40;99.90;;;;;;5028152;28;20676;-75
2022/08/19 00:16:57;;;;;;;6.97;5.47;;;23.50;99.90;;;;;;5028100;28;20275;-75
2022/08/19 00:19:26;;;;;;;9.98;5.82;;;23.50;99.90;;;;;;5028154;28;20223;-75
2022/08/19 00:21:53;;;;;;;6.75;5.63;;;23.50;99.90;;;;;;5020997;28;20200;-75
2022/08/19 00:24:19;;;;;;;6.97;5.60;;;23.50;99.90;;;;;;5027602;28;20212;-75
2022/08/19 00:26:46;;;;;;;7.80;6.22;;;23.50;99.90;;;;;;5038256;28;20192;-75
2022/08/19 00:29:17;;;;;;;7.28;5.80;;;23.40;99.90;;;;;;5031235;28;20558;-75
2022/08/19 00:31:45;;;;;;;12.90;5.97;;;23.40;99.90;;;;;;5028406;28;20200;-75
2022/08/19 00:34:14;;;;;;;7.93;5.75;;;23.40;99.90;;;;;;5031568;28;20199;-75
2022/08/19 00:36:42;;;;;;;6.40;5.80;;;23.50;99.90;;;;;;5017818;28;20192;-75
2022/08/19 00:39:10;;;;;;;6.10;5.50;;;23.50;99.90;;;;;;5040611;28;20199;-75
2022/08/19 00:41:38;;;;;;;10.77;5.90;;;23.50;99.90;;;;;;5018235;28;20197;-75
2022/08/19 00:44:14;;;;;;;6.70;5.95;;;23.50;99.90;;;;;;5025165;28;20221;-75
2022/08/19 00:46:47;;;;;;;6.10;5.50;;;23.60;99.90;;;;;;5020018;28;20188;-75
2022/08/19 00:49:27;;;;;;;10.00;5.65;;;23.60;99.90;;;;;;5028425;28;20187;-75
2022/08/19 00:52:12;;;;;;;6.90;5.70;;;23.60;99.90;;;;;;5043670;28;20182;-75
2022/08/19 00:54:41;;;;;;;10.10;6.03;;;23.60;99.90;;;;;;5026335;28;20661;-75
2022/08/19 00:57:14;;;;;;;7.30;5.60;;;23.60;99.90;;;;;;5023812;28;20193;-75
2022/08/19 00:59:47;;;;;;;8.75;5.55;;;23.60;99.90;;;;;;5035310;28;20878;-75
2022/08/19 01:02:28;;;;;;;10.05;5.45;;;23.60;99.90;;;;;;5033942;28;20780;-75
2022/08/19 01:04:55;;;;;;;8.70;5.43;;;23.60;99.90;;;;;;5035483;28;20235;-75
2022/08/19 01:07:23;;;;;;;6.38;5.78;;;23.50;99.90;;;;;;5019855;28;20283;-75
2022/08/19 01:09:49;;;;;;;6.43;5.68;;;23.50;99.90;;;;;;5028176;28;20180;-75
2022/08/19 01:12:18;;;;;;;7.82;5.20;;;23.50;99.90;;;;;;5031754;28;20188;-75
2022/08/19 01:14:46;;;;;;;7.20;5.45;;;23.50;99.90;;;;;;5006284;28;20230;-75
2022/08/19 01:17:15;;;;;;;7.90;5.55;;;23.50;99.90;;;;;;5010546;28;20192;-75
2022/08/19 01:19:46;;;;;;;9.80;5.75;;;23.50;99.90;;;;;;4991253;28;20185;-75
2022/08/19 01:22:23;;;;;;;7.93;5.93;;;23.40;99.90;;;;;;5010585;28;20226;-75
2022/08/19 01:24:51;;;;;;;10.80;5.38;;;23.40;99.90;;;;;;5029986;28;20231;-75
2022/08/19 01:27:18;;;;;;;8.05;5.90;;;23.40;99.90;;;;;;5024945;28;20290;-75
2022/08/19 01:29:45;;;;;;;8.75;5.63;;;23.30;99.90;;;;;;5030559;28;20192;-75
2022/08/19 01:32:16;;;;;;;7.80;5.40;;;23.30;99.90;;;;;;5019264;28;20678;-75
2022/08/19 01:34:46;;;;;;;9.45;5.97;;;23.30;99.90;;;;;;5021239;28;20304;-75
2022/08/19 01:37:15;;;;;;;8.07;5.85;;;23.20;99.90;;;;;;5019522;28;20634;-75
2022/08/19 01:39:43;;;;;;;6.78;6.07;;;23.20;99.90;;;;;;5029378;28;20198;-75
2022/08/19 01:42:12;;;;;;;5.80;5.20;;;23.20;99.90;;;;;;5022715;28;20275;-75
2022/08/19 01:44:43;;;;;;;8.73;6.00;;;23.20;99.90;;;;;;5016125;28;20231;-75
2022/08/19 01:47:10;;;;;;;6.95;5.72;;;23.20;99.90;;;;;;5027139;28;20203;-75
2022/08/19 01:49:40;;;;;;;6.00;5.40;;;23.20;99.90;;;;;;5024427;28;20191;-75
2022/08/19 01:52:07;;;;;;;9.30;5.82;;;23.20;99.90;;;;;;5010668;28;20172;-75
2022/08/19 01:54:33;;;;;;;8.20;6.07;;;23.20;99.90;;;;;;5027301;28;20281;-75
2022/08/19 01:57:09;;;;;;;8.32;6.45;;;23.30;99.90;;;;;;5028981;28;20192;-75
2022/08/19 01:59:39;;;;;;;6.40;5.65;;;23.20;99.90;;;;;;5038533;28;20652;-75
2022/08/19 02:02:08;;;;;;;9.38;5.88;;;23.20;99.90;;;;;;5033405;28;20184;-75
2022/08/19 02:04:37;;;;;;;7.07;5.60;;;23.30;99.90;;;;;;5027750;28;20355;-74
2022/08/19 02:07:04;;;;;;;6.53;5.70;;;23.30;99.90;;;;;;5028710;28;20301;-75
2022/08/19 02:09:32;;;;;;;5.70;5.20;;;23.20;99.90;;;;;;5031687;28;20329;-75
2022/08/19 02:11:59;;;;;;;6.80;5.65;;;23.20;99.90;;;;;;5048330;28;20479;-75
2022/08/19 02:14:26;;;;;;;10.25;6.10;;;23.20;99.90;;;;;;5047459;28;20199;-75
2022/08/19 02:16:53;;;;;;;6.43;5.82;;;23.20;99.90;;;;;;5044744;28;20229;-75
2022/08/19 02:19:19;;;;;;;9.48;6.57;;;23.20;99.90;;;;;;5047062;28;20202;-75
2022/08/19 02:21:46;;;;;;;9.75;6.10;;;23.10;99.90;;;;;;5047591;28;20183;-75
2022/08/19 02:24:12;;;;;;;6.82;6.13;;;23.10;99.90;;;;;;5015078;28;20286;-75
2022/08/19 02:26:38;;;;;;;8.07;6.00;;;23.10;99.90;;;;;;5027919;28;20334;-75
2022/08/19 02:29:05;;;;;;;12.35;5.95;;;23.10;99.90;;;;;;5012449;28;20681;-75
2022/08/19 02:31:32;;;;;;;7.13;6.07;;;23.10;99.90;;;;;;5049207;28;20168;-75
2022/08/19 02:34:00;;;;;;;13.85;5.68;;;23.10;99.90;;;;;;5047920;28;20254;-75
2022/08/19 02:36:27;;;;;;;7.57;5.93;;;23.10;99.90;;;;;;5064041;28;20222;-75
2022/08/19 02:38:54;;;;;;;12.32;5.53;;;23.10;99.90;;;;;;5035173;28;20200;-75
2022/08/19 02:41:26;;;;;;;10.70;6.20;;;23.10;99.90;;;;;;5014103;28;20196;-75
2022/08/19 02:43:57;;;;;;;6.75;5.53;;;23.00;99.90;;;;;;5051418;28;20223;-75
2022/08/19 02:46:30;;;;;;;7.80;5.40;;;23.00;99.90;;;;;;5053019;28;20664;-75
2022/08/19 02:49:05;;;;;;;8.18;5.45;;;23.00;99.90;;;;;;5053227;28;20292;-75
2022/08/19 02:51:40;;;;;;;8.23;5.80;;;23.00;99.90;;;;;;5051829;28;20240;-75
2022/08/19 02:54:09;;;;;;;8.50;6.10;;;23.00;99.90;;;;;;5045239;28;20198;-75
2022/08/19 02:56:39;;;;;;;8.75;5.60;;;23.00;99.90;;;;;;5052747;28;20191;-75
2022/08/19 02:59:10;;;;;;;13.23;5.95;;;23.00;99.90;;;;;;5052812;28;20180;-75
2022/08/19 03:01:40;;;;;;;8.05;5.78;;;23.00;99.90;;;;;;5051524;28;20214;-75
2022/08/19 03:04:08;;;;;;;6.70;5.50;;;23.10;99.90;;;;;;5037584;28;20920;-75
2022/08/19 03:06:39;;;;;;;12.23;5.90;;;23.00;99.90;;;;;;5029880;28;20725;-75
2022/08/19 03:09:06;;;;;;;7.05;5.43;;;23.00;99.90;;;;;;5021040;28;20266;-75
2022/08/19 03:11:34;;;;;;;10.68;5.75;;;23.00;99.90;;;;;;5014830;28;20184;-75
2022/08/19 03:14:03;;;;;;;9.07;5.75;;;23.10;99.90;;;;;;5014375;28;20595;-75
2022/08/19 03:16:34;;;;;;;6.25;5.57;;;23.00;99.90;;;;;;5046616;28;20194;-75
2022/08/19 03:19:01;;;;;;;9.98;5.75;;;23.00;99.90;;;;;;5051552;28;20537;-75
2022/08/19 03:21:31;;;;;;;6.97;5.55;;;23.00;99.90;;;;;;5052165;28;20274;-75
2022/08/19 03:24:04;;;;;;;7.90;6.18;;;23.00;99.90;;;;;;5024612;28;20266;-75
2022/08/19 03:26:32;;;;;;;6.22;5.63;;;23.00;99.90;;;;;;5049303;28;20521;-75
2022/08/19 03:29:04;;;;;;;9.17;5.67;;;23.00;99.90;;;;;;5033565;28;20191;-75
2022/08/19 03:31:31;;;;;;;8.20;5.53;;;22.90;99.90;;;;;;5034419;28;20176;-75
2022/08/19 03:33:57;;;;;;;8.45;5.10;;;22.90;99.90;;;;;;5050583;28;20242;-75
2022/08/19 03:36:27;;;;;;;6.78;5.22;;;22.90;99.90;;;;;;5050715;28;20528;-75
2022/08/19 03:38:58;;;;;;;11.17;6.20;;;22.90;99.90;;;;;;5029398;28;20224;-75
2022/08/19 03:41:32;;;;;;;6.75;5.78;;;22.90;99.90;;;;;;5035417;28;20214;-75
2022/08/19 03:43:59;;;;;;;6.72;5.20;;;22.90;99.90;;;;;;5030377;28;20215;-75
2022/08/19 03:46:32;;;;;;;9.38;5.80;;;22.90;99.90;;;;;;5014177;28;20189;-75
2022/08/19 03:49:03;;;;;;;8.02;5.55;;;22.80;99.90;;;;;;5033820;28;20258;-75
2022/08/19 03:51:34;;;;;;;6.25;5.60;;;22.80;99.90;;;;;;5039572;28;20184;-75
2022/08/19 03:54:05;;;;;;;6.73;5.63;;;22.80;99.90;;;;;;5029936;28;20194;-75
2022/08/19 03:56:34;;;;;;;8.40;6.20;;;22.80;99.90;;;;;;5032204;28;20188;-75
2022/08/19 03:59:02;;;;;;;5.93;5.35;;;22.80;99.90;;;;;;5043050;28;20526;-75
2022/08/19 04:01:29;;;;;;;7.33;5.90;;;22.80;99.90;;;;;;5045944;28;20580;-75
2022/08/19 04:03:58;;;;;;;7.05;5.50;;;22.80;99.90;;;;;;5051286;28;20705;-75
2022/08/19 04:06:33;;;;;;;9.52;5.95;;;22.90;99.90;;;;;;5051141;28;20254;-75
2022/08/19 04:09:03;;;;;;;6.85;6.10;;;22.90;99.90;;;;;;5015788;28;20184;-75
2022/08/19 04:11:36;;;;;;;9.27;5.80;;;23.00;99.90;;;;;;5032762;28;20192;-75
2022/08/19 04:14:03;;;;;;;7.45;5.70;;;23.00;99.90;;;;;;5033025;28;20687;-75
2022/08/19 04:16:29;;;;;;;6.82;5.72;;;23.10;99.90;;;;;;5033221;28;20576;-75
2022/08/19 04:19:01;;;;;;;6.18;5.60;;;23.10;99.90;;;;;;5051806;28;20785;-74
2022/08/19 04:21:29;;;;;;;7.40;6.10;;;23.10;99.90;;;;;;5047793;28;20186;-75
2022/08/19 04:23:56;;;;;;;9.82;6.00;;;23.10;99.90;;;;;;5038226;28;20243;-75
2022/08/19 04:26:28;;;;;;;11.20;6.20;;;23.10;99.90;;;;;;5031345;28;20767;-75
2022/08/19 04:28:55;;;;;;;6.65;5.63;;;23.20;99.90;;;;;;5031807;28;20180;-74
2022/08/19 04:31:31;;;;;;;8.23;5.93;;;23.20;99.90;;;;;;5013709;28;20253;-75
2022/08/19 04:34:01;;;;;;;13.00;6.43;;;23.30;99.90;;;;;;5041536;28;20569;-75
2022/08/19 04:36:32;;;;;;;7.13;5.88;;;23.30;99.90;;;;;;5049647;28;20199;-75
2022/08/19 04:39:04;;;;;;;9.15;5.88;;;23.40;99.90;;;;;;5038257;28;20227;-74
2022/08/19 04:44:17;;;;;;;6.57;5.88;;;23.50;99.90;;;;;;5029143;28;20212;-74
2022/08/19 04:46:47;;;;;;;10.05;6.25;;;23.60;99.90;;;;;;5026007;28;20264;-75
2022/08/19 04:49:16;;;;;;;6.38;5.78;;;23.70;99.90;;;;;;5032379;28;20185;-75
2022/08/19 04:51:45;;;;;;;8.00;6.20;;;23.70;99.90;;;;;;5029523;28;20187;-75
2022/08/19 04:54:15;;;;;;;8.00;5.65;;;23.80;99.90;;;;;;5030933;28;20195;-75
2022/08/19 04:56:42;;;;;;;7.70;5.47;;;23.80;99.90;;;;;;5030954;28;20176;-74
2022/08/19 04:59:08;;;;;;;7.55;5.82;;;24.00;99.90;;;;;;5046017;28;20192;-75
2022/08/19 05:01:36;;;;;;;7.47;5.93;;;24.10;99.90;;;;;;5049444;28;20191;-75
2022/08/19 05:04:05;;;;;;;9.25;5.88;;;24.20;99.90;;;;;;5048187;28;20211;-75
2022/08/19 05:06:33;;;;;;;9.15;6.68;;;24.20;99.90;;;;;;5048199;28;20195;-75
2022/08/19 05:09:04;;;;;;;6.63;5.93;;;24.20;99.90;;;;;;5036682;28;20529;-75
2022/08/19 05:11:38;;;;;;;7.80;6.10;;;24.30;99.90;;;;;;5037202;28;20226;-75
2022/08/19 05:14:08;;;;;;;9.10;6.15;;;24.30;99.90;;;;;;5043790;28;20356;-75
2022/08/19 05:16:35;;;;;;;8.48;6.20;;;24.30;99.90;;;;;;5060925;28;20201;-75
2022/08/19 05:24:34;;;;;;;8.25;6.47;;;24.50;99.90;;;;;;5031457;28;20218;-76
2022/08/19 05:27:02;;;;;;;10.40;5.65;;;24.50;99.90;;;;;;5028776;28;20184;-75
2022/08/19 05:29:34;;;;;;;8.02;6.18;;;24.70;99.90;;;;;;5028854;28;20188;-75
2022/08/19 05:32:04;;;;;;;9.43;5.93;;;24.70;99.90;;;;;;5027849;28;20721;-75
2022/08/19 05:34:33;;;;;;;6.97;5.70;;;24.70;99.90;;;;;;5029220;28;20271;-75
2022/08/19 05:37:02;;;;;;;10.60;5.80;;;24.80;99.90;;;;;;5026976;28;20245;-75
2022/08/19 05:39:32;;;;;;;7.20;5.93;;;24.80;99.90;;;;;;5025191;28;20199;-75
2022/08/19 05:42:06;;;;;;;8.90;5.82;;;24.90;99.90;;;;;;5009033;28;20193;-76
2022/08/19 05:44:38;;;;;;;9.13;6.43;;;24.90;99.90;;;;;;5015607;28;20211;-76
2022/08/19 05:47:08;;;;;;;9.45;6.28;;;25.00;99.90;;;;;;5021803;28;20184;-76
2022/08/19 05:49:38;;;;;;;7.97;6.40;;;25.00;99.90;;;;;;5027906;28;20461;-76
2022/08/19 05:52:08;;;;;;;9.85;6.60;;;25.10;99.90;;;;;;5027971;28;20207;-76
2022/08/19 05:54:40;;;;;;;7.70;5.97;;;25.20;99.90;;;;;;5028632;28;20191;-76
2022/08/19 05:57:07;;;;;;;9.10;6.28;;;25.20;99.90;;;;;;5001844;28;20187;-75
2022/08/19 05:59:35;;;;;;;7.55;6.75;;;25.30;99.90;;;;;;5019935;28;20238;-75
2022/08/19 06:02:03;;;;;;;7.95;6.53;;;25.30;99.90;;;;;;5021339;28;20196;-76
2022/08/19 06:04:30;;;;;;;9.60;7.00;;;25.40;99.90;;;;;;4991555;28;20263;-76
2022/08/19 06:06:56;;;;;;;10.45;6.97;;;25.50;99.90;;;;;;5015877;28;20188;-75
2022/08/19 06:09:23;;;;;;;8.40;6.47;;;25.50;99.90;;;;;;5033815;28;20190;-76
2022/08/19 06:11:55;;;;;;;9.38;6.30;;;25.60;99.90;;;;;;5016103;28;20189;-74
2022/08/19 06:14:27;;;;;;;7.72;6.50;;;25.80;99.90;;;;;;5009370;28;20552;-75
2022/08/19 06:16:53;;;;;;;7.50;5.95;;;25.90;99.90;;;;;;5011184;28;20188;-75
2022/08/19 06:19:24;;;;;;;7.63;6.32;;;26.10;99.90;;;;;;5010955;28;20223;-75
2022/08/19 06:21:53;;;;;;;10.40;6.18;;;26.10;99.90;;;;;;5031393;28;20191;-75
2022/08/19 06:24:23;;;;;;;12.68;7.45;;;26.20;99.90;;;;;;5018419;28;20222;-76
2022/08/19 06:26:53;;;;;;;6.90;6.20;;;26.30;99.90;;;;;;5028070;28;20187;-75
2022/08/19 06:29:26;;;;;;;7.05;5.90;;;26.40;99.90;;;;;;5027766;28;20287;-75
2022/08/19 06:31:56;;;;;;;7.50;6.25;;;26.40;99.90;;;;;;5028896;28;20184;-75
2022/08/19 06:34:24;;;;;;;10.23;7.05;;;26.60;99.90;;;;;;5029672;28;20642;-75
2022/08/19 06:36:52;;;;;;;7.28;6.50;;;26.70;99.90;;;;;;5028097;28;20230;-75
2022/08/19 06:39:30;;;;;;;7.82;6.70;;;26.80;99.90;;;;;;5026620;28;20250;-75
2022/08/19 06:42:03;;;;;;;7.90;6.45;;;26.90;99.90;;;;;;5014976;28;20176;-75
2022/08/19 06:44:34;;;;;;;7.43;6.40;;;26.90;99.90;;;;;;5012862;28;20212;-75
2022/08/19 06:47:04;;;;;;;8.13;6.57;;;26.90;99.90;;;;;;5046216;28;20222;-75
2022/08/19 06:49:31;;;;;;;8.20;7.38;;;27.00;99.90;;;;;;5044632;28;20624;-75
2022/08/19 06:51:58;;;;;;;7.97;6.75;;;27.00;99.90;;;;;;5027383;28;20211;-75
2022/08/19 06:54:28;;;;;;;8.30;7.03;;;27.00;99.90;;;;;;5005004;28;20196;-75
2022/08/19 06:56:56;;;;;;;11.80;6.40;;;27.10;99.90;;;;;;5028471;28;20195;-75
2022/08/19 06:59:29;;;;;;;10.52;7.05;;;27.10;99.90;;;;;;5010857;28;20196;-75
2022/08/19 07:02:05;;;;;;;9.30;6.97;;;27.30;99.90;;;;;;5024980;28;20215;-75
2022/08/19 07:04:35;;;;;;;8.35;6.97;;;27.30;99.90;;;;;;5058193;28;20746;-75
2022/08/19 07:07:13;;;;;;;7.68;6.20;;;27.40;99.90;;;;;;5029456;28;20180;-75
2022/08/19 07:09:44;;;;;;;8.18;6.38;;;27.50;99.90;;;;;;5033818;28;20183;-75
2022/08/19 07:12:16;;;;;;;7.18;6.47;;;27.50;99.90;;;;;;5036385;28;20653;-75
2022/08/19 07:14:45;;;;;;;10.95;6.70;;;27.60;99.90;;;;;;5020386;28;20296;-75
2022/08/19 07:17:13;;;;;;;12.80;6.70;;;27.70;99.90;;;;;;5018524;28;20664;-75
2022/08/19 07:19:42;;;;;;;12.68;6.43;;;27.70;99.90;;;;;;5008668;28;20504;-75
2022/08/19 07:22:09;;;;;;;8.32;6.78;;;27.80;99.90;;;;;;5042151;28;20546;-75
2022/08/19 07:24:37;;;;;;;8.77;6.18;;;27.90;99.90;;;;;;5020500;28;20593;-75
2022/08/19 07:27:06;;;;;;;9.75;7.05;;;28.00;99.90;;;;;;5010350;28;20718;-75
2022/08/19 07:29:36;;;;;;;8.68;6.68;;;28.10;99.90;;;;;;5030427;28;20184;-75
2022/08/19 07:32:04;;;;;;;8.45;7.20;;;28.20;99.90;;;;;;5030552;28;20177;-75
2022/08/19 07:34:36;;;;;;;10.25;6.95;;;28.30;99.90;;;;;;5028507;28;20204;-75
2022/08/19 07:37:06;;;;;;;11.55;6.68;;;28.30;99.90;;;;;;5031801;28;20557;-75
2022/08/19 07:39:36;;;;;;;8.65;6.53;;;28.40;99.90;;;;;;5030560;28;20211;-75
2022/08/19 07:42:09;;;;;;;11.32;7.25;;;28.40;99.90;;;;;;5030418;28;20191;-75
2022/08/19 07:44:38;;;;;;;7.70;6.90;;;28.40;99.90;;;;;;5028754;28;20306;-75
2022/08/19 07:47:07;;;;;;;10.02;7.03;;;28.50;99.90;;;;;;5049631;28;20864;-75
2022/08/19 07:49:34;;;;;;;11.32;7.30;;;28.50;99.90;;;;;;5062357;28;20195;-75
2022/08/19 07:52:10;;;;;;;12.40;6.88;;;28.60;99.90;;;;;;5067192;28;20609;-76
2022/08/19 07:54:39;;;;;;;9.82;6.18;;;28.70;99.90;;;;;;5037154;28;20329;-76
2022/08/19 07:57:08;;;;;;;9.15;6.88;;;28.80;99.90;;;;;;5030455;28;20176;-75
2022/08/19 07:59:37;;;;;;;10.90;6.95;;;28.80;99.90;;;;;;5042680;28;20217;-76
2022/08/19 08:02:05;;;;;;;11.35;6.40;;;28.90;99.90;;;;;;5067343;28;20183;-75
2022/08/19 08:10:07;;;;;;;10.75;6.63;;;29.20;99.90;;;;;;5033878;28;20219;-75
2022/08/19 08:12:41;;;;;;;8.48;6.85;;;29.20;99.90;;;;;;5048163;28;20279;-75
2022/08/19 08:15:16;;;;;;;9.15;6.30;;;29.20;99.90;;;;;;5051416;28;20203;-75
2022/08/19 08:17:45;;;;;;;11.18;6.53;;;29.30;99.90;;;;;;5033298;28;20183;-75
2022/08/19 08:20:13;;;;;;;12.75;6.60;;;29.30;99.90;;;;;;5033262;28;20214;-76
2022/08/19 08:25:37;;;;;;;10.15;6.88;;;29.60;99.90;;;;;;5045497;28;20242;-75
2022/08/19 08:28:07;;;;;;;9.35;7.03;;;29.60;99.90;;;;;;5025907;28;20564;-75
2022/08/19 08:30:35;;;;;;;9.35;5.80;;;29.70;99.90;;;;;;5013206;28;20271;-75
2022/08/19 08:33:02;;;;;;;13.45;6.78;;;29.70;99.90;;;;;;5050211;28;20198;-75
2022/08/19 08:35:28;;;;;;;11.82;6.97;;;29.70;99.90;;;;;;5033219;28;20221;-75
2022/08/19 08:37:56;;;;;;;9.13;6.28;;;29.80;99.90;;;;;;5035798;28;20186;-74
2022/08/19 08:41:07;;;;;;;9.25;6.50;;;29.90;99.90;;;;;;5030280;28;20187;-75
2022/08/19 08:43:41;;;;;;;10.73;6.55;;;30.00;99.90;;;;;;5029019;28;20666;-75
2022/08/19 08:46:16;;;;;;;12.35;6.43;;;30.10;99.90;;;;;;5027649;28;20506;-76
2022/08/19 08:49:36;;;;;;;10.95;6.78;;;30.10;99.90;;;;;;5062233;28;20241;-75
2022/08/19 08:52:26;;;;;;;10.73;6.60;;;30.20;99.90;;;;;;5010415;28;20606;-75
2022/08/19 08:54:58;;;;;;;12.98;6.93;;;30.20;99.90;;;;;;5007564;28;20184;-75
2022/08/19 08:57:50;;;;;;;11.95;7.05;;;30.20;99.90;;;;;;5031418;28;20194;-75
2022/08/19 09:00:37;;;;;;;12.40;6.63;;;30.30;99.90;;;;;;5036515;28;20187;-75
2022/08/19 09:03:12;;;;;;;10.25;6.65;;;30.40;99.90;;;;;;5045420;28;20241;-75
2022/08/19 09:06:12;;;;;;;12.57;6.32;;;30.50;99.90;;;;;;5028454;28;20703;-75
2022/08/19 09:09:13;;;;;;;13.13;6.82;;;30.60;99.90;;;;;;5030002;28;20196;-75
2022/08/19 09:11:50;;;;;;;15.15;6.15;;;30.70;99.90;;;;;;5025701;28;20729;-75
2022/08/19 09:14:45;;;;;;;11.02;6.53;;;30.90;99.90;;;;;;5045924;28;20201;-75
2022/08/19 09:17:13;;;;;;;15.45;6.68;;;30.90;99.90;;;;;;5048512;28;20190;-75
2022/08/19 09:20:13;;;;;;;10.63;6.35;;;30.90;99.90;;;;;;5033096;28;20237;-75
2022/08/19 09:22:44;;;;;;;9.93;6.72;;;31.00;99.90;;;;;;5049699;28;20183;-75
2022/08/19 09:25:16;;;;;;;16.38;6.22;;;30.90;99.90;;;;;;5039721;28;20562;-75
2022/08/19 09:27:44;;;;;;;14.95;6.50;;;30.90;99.90;;;;;;5046375;28;20229;-75
2022/08/19 09:30:18;;;;;;;12.13;6.45;;;31.10;99.90;;;;;;5049058;28;20234;-75
2022/08/19 09:32:48;;;;;;;11.93;6.13;;;31.20;99.90;;;;;;5031208;28;20187;-75
2022/08/19 09:35:15;;;;;;;11.68;5.90;;;31.30;99.90;;;;;;5029302;28;20215;-76
2022/08/19 09:37:43;;;;;;;12.15;6.07;;;31.40;99.90;;;;;;5029343;28;20180;-75
2022/08/19 09:40:15;;;;;;;9.25;6.68;;;31.50;99.90;;;;;;5031131;28;20192;-75
2022/08/19 09:42:43;;;;;;;14.90;6.32;;;31.50;99.90;;;;;;5029581;28;20876;-75
2022/08/19 09:45:10;;;;;;;17.60;6.32;;;31.70;99.90;;;;;;5038631;28;20195;-76
2022/08/19 09:47:38;;;;;;;12.32;6.28;;;31.80;99.90;;;;;;5031694;28;20245;-75
2022/08/19 09:50:08;;;;;;;14.00;6.10;;;31.90;99.90;;;;;;5024895;28;20828;-75
2022/08/19 09:52:39;;;;;;;14.43;6.00;;;31.80;99.90;;;;;;5010755;28;20912;-75
2022/08/19 09:55:09;;;;;;;13.82;6.82;;;31.90;99.90;;;;;;5018417;28;20238;-75
2022/08/19 09:57:37;;;;;;;10.68;6.20;;;32.10;99.90;;;;;;5043709;28;20188;-75
2022/08/19 10:00:10;;;;;;;10.15;6.45;;;32.10;99.90;;;;;;5027658;28;20681;-75
2022/08/19 10:02:36;;;;;;;9.70;6.05;;;32.10;99.90;;;;;;5033478;28;20192;-75
2022/08/19 10:07:48;;;;;;;12.85;5.82;;;32.20;99.90;;;;;;5029494;28;20188;-75
2022/08/19 10:10:16;;;;;;;10.10;6.30;;;32.40;99.90;;;;;;5027594;28;20184;-75
2022/08/19 10:12:47;;;;;;;9.63;6.30;;;32.30;99.90;;;;;;5030015;28;20188;-75
2022/08/19 10:15:14;;;;;;;14.27;5.90;;;32.40;99.90;;;;;;5042638;28;20192;-75
2022/08/19 10:17:41;;;;;;;14.48;5.97;;;32.40;99.90;;;;;;5045041;28;20180;-75
2022/08/19 10:20:09;;;;;;;11.70;6.32;;;32.40;99.90;;;;;;5034247;28;20238;-75
2022/08/19 10:22:37;;;;;;;8.18;5.43;;;32.40;99.90;;;;;;5028598;28;20199;-75
2022/08/19 10:25:06;;;;;;;9.70;5.88;;;32.40;99.90;;;;;;5029456;28;20331;-76
2022/08/19 10:27:37;;;;;;;9.00;5.75;;;32.40;99.90;;;;;;5020926;28;20274;-76
2022/08/19 10:30:06;;;;;;;9.00;5.75;;;32.40;99.90;;;;;;5047775;28;20202;-75
2022/08/19 10:32:32;;;;;;;11.85;6.00;;;32.40;99.90;;;;;;5048068;28;20531;-77
2022/08/19 10:34:58;;;;;;;13.18;5.75;;;32.50;99.90;;;;;;5042985;28;20192;-76
2022/08/19 10:37:25;;;;;;;15.10;6.07;;;32.70;99.90;;;;;;5024832;28;20214;-76
2022/08/19 10:39:51;;;;;;;17.80;5.60;;;32.70;99.90;;;;;;5041987;28;20817;-76
2022/08/19 10:42:18;;;;;;;8.45;5.60;;;32.70;99.90;;;;;;5023272;28;20192;-76
2022/08/19 10:44:46;;;;;;;8.93;6.00;;;32.70;99.90;;;;;;5027114;28;20235;-76
2022/08/19 10:47:12;;;;;;;12.38;5.78;;;32.70;99.90;;;;;;5027738;28;20574;-76
2022/08/19 10:52:33;;;;;;;14.57;6.05;;;32.80;99.90;;;;;;5036678;28;20222;-76
2022/08/19 10:52:34;;;;;;;10.20;5.88;;;32.90;99.90;;;;;;5038112;28;20620;-76
2022/08/19 10:57:48;;;;;;;13.98;6.65;;;33.00;99.90;;;;;;5033860;28;20226;-76
2022/08/19 11:00:16;;;;;;;10.45;5.68;;;32.90;99.90;;;;;;5028539;28;20199;-76
2022/08/19 11:02:42;;;;;;;13.55;5.80;;;32.80;99.90;;;;;;5028287;28;20184;-75
2022/08/19 11:05:12;;;;;;;9.88;5.68;;;32.80;99.90;;;;;;5031049;28;20315;-76
2022/08/19 11:07:40;;;;;;;10.40;5.80;;;32.70;99.90;;;;;;5028051;28;20197;-76
2022/08/19 11:10:10;;;;;;;15.02;6.38;;;32.60;99.90;;;;;;5032023;28;20195;-76
2022/08/19 11:12:40;;;;;;;13.35;5.82;;;32.60;99.90;;;;;;5053057;28;20189;-76
2022/08/19 11:15:10;;;;;;;14.02;6.38;;;32.60;99.90;;;;;;5053989;28;20596;-76
2022/08/19 11:17:43;;;;;;;10.52;5.60;;;32.60;99.90;;;;;;5028201;28;20603;-75
2022/08/19 11:20:14;;;;;;;12.55;5.50;;;32.60;99.90;;;;;;4995728;28;20189;-76
2022/08/19 11:22:42;;;;;;;10.30;5.55;;;32.70;99.90;;;;;;5048899;28;20533;-76
2022/08/19 11:25:10;;;;;;;9.52;6.00;;;32.60;99.90;;;;;;5013883;28;20227;-75
2022/08/19 11:27:42;;;;;;;12.35;6.20;;;32.70;99.90;;;;;;5015646;28;20637;-76
2022/08/19 11:30:12;;;;;;;11.35;6.18;;;32.60;99.90;;;;;;5027451;28;20677;-75
2022/08/19 11:32:42;;;;;;;15.85;5.88;;;32.70;99.90;;;;;;5021386;28;20536;-75
2022/08/19 11:35:12;;;;;;;13.50;6.18;;;32.70;99.90;;;;;;5026326;28;20188;-75
2022/08/19 11:37:39;;;;;;;14.50;6.45;;;32.80;99.90;;;;;;5022664;28;20992;-75
2022/08/19 11:40:07;;;;;;;10.95;5.60;;;32.80;99.90;;;;;;5035703;28;20245;-75
2022/08/19 11:45:18;;;;;;;10.35;5.10;;;32.70;99.90;;;;;;5030616;28;20467;-76
2022/08/19 11:47:46;;;;;;;10.52;5.65;;;32.90;99.90;;;;;;5029809;28;20530;-76
2022/08/19 11:50:14;;;;;;;10.68;5.60;;;33.10;99.90;;;;;;5036501;28;20212;-75
2022/08/19 11:52:44;;;;;;;7.60;5.35;;;33.10;99.90;;;;;;5042700;28;20189;-76
2022/08/19 11:55:14;;;;;;;12.55;5.90;;;33.10;99.90;;;;;;5061624;28;20185;-76
2022/08/19 11:57:43;;;;;;;9.65;5.55;;;33.00;99.90;;;;;;5030561;28;20191;-76
2022/08/19 12:00:12;;;;;;;9.35;5.68;;;32.90;99.90;;;;;;5037746;28;20192;-76
2022/08/19 12:02:39;;;;;;;7.88;5.55;;;33.00;99.90;;;;;;5029299;28;20228;-76
2022/08/19 12:05:06;;;;;;;8.13;5.55;;;33.00;99.90;;;;;;5030220;28;20383;-76
2022/08/19 12:07:34;;;;;;;12.40;5.30;;;33.00;99.90;;;;;;5028962;28;20277;-75
2022/08/19 12:10:01;;;;;;;7.18;5.00;;;32.90;99.90;;;;;;5034806;28;20656;-76
2022/08/19 12:12:28;;;;;;;7.55;5.10;;;32.90;99.90;;;;;;5040079;28;20187;-76
2022/08/19 12:14:57;;;;;;;13.35;5.60;;;33.00;99.90;;;;;;5033944;28;20222;-76
2022/08/19 12:17:28;;;;;;;12.70;5.50;;;33.10;99.90;;;;;;5035061;28;20198;-75
2022/08/19 12:19:55;;;;;;;11.38;5.57;;;33.10;99.90;;;;;;5035974;28;20221;-75
2022/08/19 12:22:22;;;;;;;8.52;5.75;;;33.00;99.90;;;;;;5022410;28;20191;-75
2022/08/19 12:24:50;;;;;;;8.25;5.18;;;33.00;99.90;;;;;;5023878;28;20231;-75
2022/08/19 12:27:17;;;;;;;8.95;5.80;;;33.00;99.90;;;;;;5015736;28;20187;-75
2022/08/19 12:29:43;;;;;;;9.32;5.20;;;32.90;99.90;;;;;;5003450;28;20815;-75
2022/08/19 12:32:10;;;;;;;14.30;5.60;;;32.90;99.90;;;;;;5031557;28;20192;-75
2022/08/19 12:34:37;;;;;;;6.80;5.53;;;32.80;99.90;;;;;;5014449;28;20188;-76
2022/08/19 12:37:06;;;;;;;11.75;5.60;;;32.80;99.90;;;;;;5031824;28;20188;-76
2022/08/19 12:39:42;;;;;;;10.70;5.72;;;32.80;99.90;;;;;;5026373;28;20194;-75
2022/08/19 12:42:11;;;;;;;8.32;5.30;;;32.80;99.90;;;;;;5038551;28;20274;-75
2022/08/19 12:44:41;;;;;;;8.95;5.68;;;32.80;99.90;;;;;;5066719;28;20211;-75
2022/08/19 12:47:09;;;;;;;14.07;5.63;;;32.80;99.90;;;;;;5050729;28;20222;-76
2022/08/19 12:49:39;;;;;;;8.52;5.88;;;32.80;99.90;;;;;;5050264;28;20191;-75
2022/08/19 12:52:08;;;;;;;11.45;5.38;;;32.80;99.90;;;;;;5028153;28;20186;-76
2022/08/19 12:54:45;;;;;;;11.55;5.85;;;32.80;99.90;;;;;;5030721;28;20284;-76
2022/08/19 12:57:12;;;;;;;10.35;5.53;;;32.80;99.90;;;;;;5029601;28;20717;-76
2022/08/19 12:59:39;;;;;;;15.57;5.82;;;32.90;99.90;;;;;;5029613;28;20212;-76
2022/08/19 13:02:07;;;;;;;8.13;5.65;;;32.90;99.90;;;;;;5022749;28;20191;-75
2022/08/19 13:04:37;;;;;;;11.65;6.20;;;32.80;99.90;;;;;;5035843;28;20207;-75
2022/08/19 13:07:04;;;;;;;8.13;5.28;;;32.80;99.90;;;;;;5016370;28;20199;-74
2022/08/19 13:09:30;;;;;;;8.65;5.38;;;32.80;99.90;;;;;;5029749;28;20195;-75
2022/08/19 13:11:57;;;;;;;12.95;6.20;;;32.90;99.90;;;;;;5046559;28;20176;-76
2022/08/19 13:14:23;;;;;;;9.90;5.90;;;32.80;99.90;;;;;;5041517;28;20223;-75
2022/08/19 13:16:50;;;;;;;11.55;6.20;;;32.70;99.90;;;;;;5037632;28;20198;-77
2022/08/19 13:19:20;;;;;;;16.00;6.20;;;32.50;99.90;;;;;;5029062;28;20662;-75
2022/08/19 13:21:51;;;;;;;11.55;6.35;;;32.60;99.90;;;;;;5024874;28;20538;-75
2022/08/19 13:24:18;;;;;;;10.00;5.53;;;32.60;99.90;;;;;;5014880;28;20236;-75